createdAt,value
2024-02-26T00:01:35.340Z,5.55
2024-02-26T00:04:04.045Z,5.90
2024-02-26T00:06:32.601Z,5.85
2024-02-26T00:09:00.555Z,5.90
2024-02-26T00:11:28.412Z,5.90
2024-02-26T00:13:57.262Z,6.22
2024-02-26T00:16:25.321Z,5.53
2024-02-26T00:18:53.201Z,6.30
2024-02-26T00:21:21.269Z,6.60
2024-02-26T00:23:50.606Z,5.80
2024-02-26T00:26:18.660Z,5.78
2024-02-26T00:28:46.545Z,5.67
2024-02-26T00:31:14.198Z,5.85
2024-02-26T00:33:42.120Z,5.32
2024-02-26T00:36:10.253Z,6.85
2024-02-26T00:38:38.292Z,6.38
2024-02-26T00:41:05.976Z,6.13
2024-02-26T00:43:33.756Z,5.88
2024-02-26T00:46:01.839Z,6.60
2024-02-26T00:48:29.821Z,5.95
2024-02-26T00:50:57.783Z,6.60
2024-02-26T00:53:26.306Z,5.90
2024-02-26T00:55:54.020Z,6.65
2024-02-26T00:58:21.681Z,7.38
2024-02-26T01:00:49.351Z,6.75
2024-02-26T01:03:16.875Z,7.05
2024-02-26T01:05:44.628Z,6.33
2024-02-26T01:08:12.349Z,6.43
2024-02-26T01:10:40.082Z,6.20
2024-02-26T01:13:09.047Z,6.85
2024-02-26T01:15:36.702Z,6.60
2024-02-26T01:18:04.408Z,6.60
2024-02-26T01:20:32.113Z,6.28
2024-02-26T01:22:59.645Z,7.05
2024-02-26T01:25:27.294Z,6.85
2024-02-26T01:27:54.936Z,6.75
2024-02-26T01:30:22.719Z,7.17
2024-02-26T01:32:50.324Z,6.70
2024-02-26T01:35:18.267Z,6.72
2024-02-26T01:37:45.835Z,6.18
2024-02-26T01:40:14.205Z,6.85
2024-02-26T01:42:42.985Z,6.80
2024-02-26T01:45:17.345Z,7.40
2024-02-26T01:47:47.230Z,6.40
2024-02-26T01:50:15.744Z,6.70
2024-02-26T01:52:43.811Z,6.40
2024-02-26T01:55:11.822Z,6.70
2024-02-26T01:57:39.646Z,6.70
2024-02-26T02:00:09.635Z,7.57
2024-02-26T02:02:37.787Z,6.80
2024-02-26T02:05:06.540Z,6.60
2024-02-26T02:07:34.542Z,6.70
2024-02-26T02:10:02.167Z,6.20
2024-02-26T02:12:29.840Z,6.28
2024-02-26T02:14:57.559Z,6.57
2024-02-26T02:17:25.535Z,6.88
2024-02-26T02:19:53.491Z,6.63
2024-02-26T02:22:21.107Z,6.53
2024-02-26T02:24:48.633Z,7.13
2024-02-26T02:27:16.132Z,6.63
2024-02-26T02:29:43.705Z,7.00
2024-02-26T02:32:11.354Z,6.63
2024-02-26T02:34:39.140Z,7.32
2024-02-26T02:37:06.976Z,6.40
2024-02-26T02:39:35.017Z,6.57
2024-02-26T02:42:02.633Z,7.25
2024-02-26T02:44:30.270Z,6.30
2024-02-26T02:46:58.306Z,6.53
2024-02-26T02:49:26.210Z,6.68
2024-02-26T02:51:55.569Z,6.50
2024-02-26T02:54:23.244Z,6.38
2024-02-26T02:56:51.075Z,6.37
2024-02-26T02:59:18.821Z,7.22
2024-02-26T03:01:46.689Z,6.50
2024-02-26T03:04:14.484Z,6.78
2024-02-26T03:06:42.165Z,6.60
2024-02-26T03:09:09.947Z,6.70
2024-02-26T03:11:37.833Z,6.57
2024-02-26T03:14:06.368Z,6.97
2024-02-26T03:16:34.115Z,7.00
2024-02-26T03:19:01.796Z,6.68
2024-02-26T03:21:29.578Z,6.47
2024-02-26T03:23:58.774Z,7.03
2024-02-26T03:26:26.582Z,6.97
2024-02-26T03:28:54.285Z,6.55
2024-02-26T03:31:22.986Z,7.28
2024-02-26T03:33:50.719Z,6.87
2024-02-26T03:36:18.577Z,7.05
2024-02-26T03:38:46.361Z,6.47
2024-02-26T03:41:14.228Z,6.03
2024-02-26T03:43:41.782Z,7.30
2024-02-26T03:46:10.594Z,6.47
2024-02-26T03:48:38.543Z,6.53
2024-02-26T03:51:06.528Z,7.10
2024-02-26T03:53:34.183Z,6.68
2024-02-26T03:56:05.625Z,7.05
2024-02-26T03:58:33.856Z,6.80
2024-02-26T04:01:02.050Z,7.00
2024-02-26T04:03:30.019Z,7.35
2024-02-26T04:05:57.792Z,6.65
2024-02-26T04:08:25.466Z,7.82
2024-02-26T04:10:53.477Z,6.73
2024-02-26T04:13:21.323Z,7.00
2024-02-26T04:15:49.042Z,6.65
2024-02-26T04:18:17.055Z,6.68
2024-02-26T04:20:44.875Z,6.43
2024-02-26T04:23:12.593Z,6.57
2024-02-26T04:25:40.415Z,6.47
2024-02-26T04:28:08.292Z,7.13
2024-02-26T04:30:36.128Z,7.15
2024-02-26T04:33:04.202Z,7.40
2024-02-26T04:35:32.238Z,6.33
2024-02-26T04:38:00.688Z,7.63
2024-02-26T04:40:28.861Z,7.00
2024-02-26T04:42:57.006Z,7.70
2024-02-26T04:45:24.740Z,6.78
2024-02-26T04:47:52.683Z,8.70
2024-02-26T04:50:20.423Z,9.77
2024-02-26T04:52:48.198Z,10.38
2024-02-26T04:55:15.968Z,10.65
2024-02-26T04:57:44.158Z,11.57
2024-02-26T05:00:12.820Z,10.50
2024-02-26T05:02:41.078Z,9.82
2024-02-26T05:05:10.134Z,9.48
2024-02-26T05:07:42.620Z,8.98
2024-02-26T05:10:10.936Z,10.20
2024-02-26T05:12:38.778Z,8.83
2024-02-26T05:15:07.050Z,8.82
2024-02-26T05:17:35.153Z,9.32
2024-02-26T05:20:03.790Z,11.05
2024-02-26T05:22:31.447Z,9.82
2024-02-26T05:24:59.346Z,9.57
2024-02-26T05:27:27.017Z,10.25
2024-02-26T05:29:55.639Z,10.45
2024-02-26T05:32:23.393Z,10.95
2024-02-26T05:34:51.044Z,12.82
2024-02-26T05:37:18.603Z,12.97
2024-02-26T05:39:46.310Z,11.02
2024-02-26T05:42:14.101Z,10.43
2024-02-26T05:44:41.937Z,10.45
2024-02-26T05:47:09.465Z,9.20
2024-02-26T05:49:37.336Z,8.90
2024-02-26T05:52:05.205Z,9.23
2024-02-26T05:54:33.449Z,9.65
2024-02-26T05:57:01.341Z,9.18
2024-02-26T05:59:29.487Z,9.90
2024-02-26T06:01:57.540Z,10.17
2024-02-26T06:04:26.292Z,11.00
2024-02-26T06:06:54.586Z,11.55
2024-02-26T06:09:22.720Z,10.80
2024-02-26T06:11:51.456Z,10.60
2024-02-26T06:14:21.127Z,10.60
2024-02-26T06:16:50.090Z,9.45
2024-02-26T06:19:18.649Z,10.32
2024-02-26T06:21:46.582Z,10.18
2024-02-26T06:24:15.805Z,9.88
2024-02-26T06:26:44.500Z,9.80
2024-02-26T06:29:12.129Z,10.10
2024-02-26T06:31:40.015Z,9.63
2024-02-26T06:34:07.657Z,8.57
2024-02-26T06:36:36.109Z,8.80
2024-02-26T06:39:04.215Z,9.07
2024-02-26T06:41:33.106Z,8.40
2024-02-26T06:44:02.713Z,9.10
2024-02-26T06:46:33.383Z,10.52
2024-02-26T06:49:07.059Z,10.73
2024-02-26T06:51:35.917Z,8.97
2024-02-26T06:54:04.063Z,8.48
2024-02-26T06:56:33.023Z,8.95
2024-02-26T06:59:02.182Z,7.25
2024-02-26T07:01:33.390Z,7.38
2024-02-26T07:04:08.338Z,7.87
2024-02-26T07:06:53.723Z,6.95
2024-02-26T07:14:04.501Z,6.68
2024-02-26T07:16:50.329Z,6.78
2024-02-26T07:19:28.992Z,6.80
2024-02-26T07:22:10.184Z,8.05
2024-02-26T07:24:42.358Z,7.22
2024-02-26T07:27:17.743Z,4.82
2024-02-26T07:29:52.653Z,7.60
2024-02-26T07:32:27.402Z,6.87
2024-02-26T07:35:06.649Z,5.93
2024-02-26T07:37:41.328Z,5.93
2024-02-26T07:40:16.144Z,6.75
2024-02-26T07:42:49.763Z,5.95
2024-02-26T07:45:21.471Z,3.70
2024-02-26T07:47:50.018Z,5.85
2024-02-26T07:50:22.622Z,4.75
2024-02-26T07:53:30.291Z,5.22
2024-02-26T07:56:01.314Z,5.38
2024-02-26T07:58:29.950Z,4.27
2024-02-26T08:00:57.965Z,5.13
2024-02-26T08:03:29.112Z,4.07
2024-02-26T08:06:13.567Z,2.75
2024-02-26T08:11:47.676Z,3.77
2024-02-26T08:17:52.961Z,4.60
2024-02-26T08:20:27.613Z,4.03
2024-02-26T08:22:56.518Z,2.53
2024-02-26T08:25:27.337Z,3.40
2024-02-26T08:28:12.517Z,3.75
2024-02-26T08:30:48.653Z,3.63
2024-02-26T08:33:17.900Z,3.08
2024-02-26T08:35:48.438Z,3.20
2024-02-26T08:38:22.506Z,2.67
2024-02-26T08:40:56.605Z,3.22
2024-02-26T08:43:29.641Z,5.13
2024-02-26T08:46:02.356Z,5.10
2024-02-26T08:48:32.501Z,4.97
2024-02-26T08:51:00.757Z,2.60
2024-02-26T08:53:37.784Z,3.05
2024-02-26T08:56:10.167Z,2.83
2024-02-26T08:58:38.623Z,2.50
2024-02-26T09:01:09.767Z,2.40
2024-02-26T09:03:43.228Z,2.60
2024-02-26T09:06:15.769Z,2.10
2024-02-26T09:08:44.665Z,2.45
2024-02-26T09:11:13.022Z,1.60
2024-02-26T09:13:42.563Z,2.30
2024-02-26T09:16:11.463Z,2.20
2024-02-26T09:18:41.525Z,1.63
2024-02-26T09:21:11.323Z,2.30
2024-02-26T09:23:39.103Z,2.00
2024-02-26T09:26:08.195Z,1.92
2024-02-26T09:28:38.865Z,1.87
2024-02-26T09:31:15.289Z,1.77
2024-02-26T09:33:47.848Z,1.42
2024-02-26T09:36:16.706Z,1.30
2024-02-26T09:38:52.543Z,1.92
2024-02-26T09:41:32.053Z,1.80
2024-02-26T09:44:02.481Z,2.22
2024-02-26T09:46:31.852Z,1.60
2024-02-26T09:49:00.202Z,1.50
2024-02-26T09:51:32.550Z,1.42
2024-02-26T09:54:04.104Z,0.90
2024-02-26T09:56:33.947Z,1.50
2024-02-26T09:59:01.693Z,1.30
2024-02-26T10:01:37.520Z,1.13
2024-02-26T10:04:05.613Z,1.20
2024-02-26T10:06:34.838Z,1.30
2024-02-26T10:09:09.269Z,1.20
2024-02-26T10:11:46.241Z,1.60
2024-02-26T10:14:22.285Z,1.20
2024-02-26T10:16:55.415Z,1.13
2024-02-26T10:19:28.511Z,1.60
2024-02-26T10:22:01.803Z,1.35
2024-02-26T10:24:30.514Z,1.40
2024-02-26T10:26:58.371Z,1.20
2024-02-26T10:29:33.651Z,1.00
2024-02-26T10:32:06.103Z,1.33
2024-02-26T10:34:44.500Z,1.20
2024-02-26T10:37:13.236Z,1.73
2024-02-26T10:39:48.271Z,1.08
2024-02-26T10:42:21.279Z,1.20
2024-02-26T10:44:50.257Z,1.73
2024-02-26T10:47:18.154Z,1.00
2024-02-26T10:49:51.453Z,1.20
2024-02-26T10:52:21.759Z,1.05
2024-02-26T10:54:51.803Z,0.85
2024-02-26T10:57:21.774Z,1.40
2024-02-26T10:59:50.475Z,1.20
2024-02-26T11:02:19.918Z,1.20
2024-02-26T11:04:48.271Z,1.17
2024-02-26T11:07:22.189Z,1.30
2024-02-26T11:10:00.348Z,1.40
2024-02-26T11:12:46.765Z,1.02
2024-02-26T11:15:24.275Z,1.90
2024-02-26T11:18:13.529Z,1.10
2024-02-26T11:20:43.559Z,1.10
2024-02-26T11:23:12.983Z,0.90
2024-02-26T11:25:49.775Z,1.10
2024-02-26T11:28:21.013Z,1.10
2024-02-26T11:30:49.909Z,1.67
2024-02-26T11:33:17.696Z,0.98
2024-02-26T11:35:46.284Z,1.67
2024-02-26T11:38:27.632Z,1.88
2024-02-26T11:40:56.270Z,1.08
2024-02-26T11:44:06.679Z,0.90
2024-02-26T11:46:45.712Z,1.10
2024-02-26T11:49:28.622Z,1.00
2024-02-26T11:51:57.623Z,1.00
2024-02-26T11:54:42.389Z,1.00
2024-02-26T11:57:36.306Z,1.00
2024-02-26T12:00:27.965Z,0.70
2024-02-26T12:03:09.874Z,0.70
2024-02-26T12:05:38.593Z,1.00
2024-02-26T12:08:10.371Z,1.08
2024-02-26T12:10:41.301Z,0.90
2024-02-26T12:13:20.342Z,0.80
2024-02-26T12:15:59.679Z,1.20
2024-02-26T12:18:27.711Z,0.82
2024-02-26T12:21:04.591Z,0.80
2024-02-26T12:23:34.077Z,0.80
2024-02-26T12:26:05.852Z,0.75
2024-02-26T12:28:39.783Z,1.13
2024-02-26T12:31:11.463Z,0.93
2024-02-26T12:33:40.014Z,0.80
2024-02-26T12:36:18.885Z,0.88
2024-02-26T12:38:46.816Z,0.70
2024-02-26T12:41:15.190Z,1.00
2024-02-26T12:43:43.281Z,0.80
2024-02-26T12:46:12.374Z,1.27
2024-02-26T12:48:41.581Z,0.80
2024-02-26T12:51:11.978Z,0.85
2024-02-26T12:53:40.398Z,1.17
2024-02-26T12:56:11.293Z,1.02
2024-02-26T12:58:40.672Z,0.82
2024-02-26T13:01:08.929Z,1.02
2024-02-26T13:03:37.174Z,0.80
2024-02-26T13:06:08.683Z,1.17
2024-02-26T13:08:37.138Z,1.20
2024-02-26T13:11:06.073Z,1.13
2024-02-26T13:13:34.619Z,0.95
2024-02-26T13:16:08.547Z,1.13
2024-02-26T13:18:45.145Z,1.10
2024-02-26T13:21:17.052Z,1.08
2024-02-26T13:23:47.729Z,1.00
2024-02-26T13:26:16.104Z,0.98
2024-02-26T13:28:46.963Z,1.27
2024-02-26T13:31:14.930Z,1.50
2024-02-26T13:33:43.896Z,1.75
2024-02-26T13:36:16.455Z,1.40
2024-02-26T13:38:56.101Z,1.38
2024-02-26T13:41:24.937Z,0.90
2024-02-26T13:43:55.878Z,1.07
2024-02-26T13:46:23.651Z,1.10
2024-02-26T13:48:51.423Z,0.90
2024-02-26T13:51:19.180Z,0.90
2024-02-26T13:53:47.418Z,0.88
2024-02-26T13:56:15.328Z,0.70
2024-02-26T13:58:42.964Z,1.00
2024-02-26T14:01:10.698Z,1.08
2024-02-26T14:03:38.616Z,1.20
2024-02-26T14:06:06.925Z,1.35
2024-02-26T14:08:34.974Z,1.50
2024-02-26T14:11:03.164Z,1.00
2024-02-26T14:13:30.708Z,0.90
2024-02-26T14:15:58.691Z,1.05
2024-02-26T14:18:26.506Z,1.50
2024-02-26T14:20:54.313Z,1.70
2024-02-26T14:23:22.056Z,1.70
2024-02-26T14:25:50.196Z,1.45
2024-02-26T14:28:22.086Z,1.23
2024-02-26T14:30:54.224Z,1.88
2024-02-26T14:33:21.929Z,2.20
2024-02-26T14:35:49.866Z,0.95
2024-02-26T14:38:18.591Z,1.20
2024-02-26T14:40:47.256Z,1.00
2024-02-26T14:43:17.458Z,0.60
2024-02-26T14:45:48.610Z,0.97
2024-02-26T14:48:16.424Z,0.95
2024-02-26T14:50:44.172Z,1.15
2024-02-26T14:53:12.271Z,1.48
2024-02-26T14:55:41.975Z,1.00
2024-02-26T14:58:12.415Z,1.20
2024-02-26T15:00:40.420Z,1.40
2024-02-26T15:03:09.783Z,1.27
2024-02-26T15:05:37.667Z,0.98
2024-02-26T15:08:05.960Z,0.80
2024-02-26T15:10:33.941Z,1.17
2024-02-26T15:13:01.490Z,1.02
2024-02-26T15:15:29.365Z,1.10
2024-02-26T15:17:57.529Z,1.10
2024-02-26T15:20:25.693Z,1.10
2024-02-26T15:22:53.395Z,0.97
2024-02-26T15:25:20.940Z,1.00
2024-02-26T15:27:48.504Z,1.10
2024-02-26T15:30:17.604Z,1.00
2024-02-26T15:32:46.007Z,1.00
2024-02-26T15:35:13.694Z,0.90
2024-02-26T15:37:41.594Z,1.20
2024-02-26T15:40:10.183Z,1.17
2024-02-26T15:42:37.964Z,1.00
2024-02-26T15:45:06.326Z,1.00
2024-02-26T15:47:34.081Z,1.20
2024-02-26T15:50:03.289Z,1.13
2024-02-26T15:52:31.356Z,1.00
2024-02-26T15:54:59.146Z,1.20
2024-02-26T15:57:27.152Z,1.30
2024-02-26T15:59:55.396Z,0.73
2024-02-26T16:02:23.205Z,1.00
2024-02-26T16:04:50.710Z,1.13
2024-02-26T16:07:25.630Z,0.88
2024-02-26T16:09:54.446Z,1.10
2024-02-26T16:12:44.275Z,1.47
2024-02-26T16:15:12.339Z,1.17
2024-02-26T16:17:48.468Z,1.20
2024-02-26T16:20:17.330Z,1.20
2024-02-26T16:22:45.105Z,1.10
2024-02-26T16:25:12.899Z,1.30
2024-02-26T16:27:42.040Z,1.10
2024-02-26T16:30:10.589Z,1.10
2024-02-26T16:32:42.128Z,1.00
2024-02-26T16:35:12.186Z,1.55
2024-02-26T16:37:40.066Z,2.67
2024-02-26T16:40:11.358Z,4.30
2024-02-26T16:42:39.420Z,2.78
2024-02-26T16:45:07.936Z,3.40
2024-02-26T16:47:37.521Z,2.50
2024-02-26T16:50:07.600Z,1.03
2024-02-26T16:52:37.095Z,3.20
2024-02-26T16:55:06.832Z,2.38
2024-02-26T16:57:34.816Z,1.58
2024-02-26T17:00:02.836Z,2.58
2024-02-26T17:02:30.676Z,2.80
2024-02-26T17:04:58.700Z,2.15
2024-02-26T17:07:26.733Z,1.58
2024-02-26T17:09:56.165Z,2.03
2024-02-26T17:12:23.930Z,1.73
2024-02-26T17:14:53.283Z,2.10
2024-02-26T17:17:21.213Z,2.30
2024-02-26T17:19:48.897Z,2.35
2024-02-26T17:22:16.614Z,1.83
2024-02-26T17:24:45.674Z,1.50
2024-02-26T17:27:13.795Z,2.00
2024-02-26T17:29:42.029Z,1.50
2024-02-26T17:32:11.392Z,2.00
2024-02-26T17:34:43.491Z,1.83
2024-02-26T17:37:11.380Z,2.30
2024-02-26T17:39:39.087Z,1.97
2024-02-26T17:42:07.013Z,1.63
2024-02-26T17:44:41.125Z,2.50
2024-02-26T17:47:08.916Z,1.80
2024-02-26T17:49:36.718Z,1.55
2024-02-26T17:52:05.969Z,1.90
2024-02-26T17:54:34.906Z,1.45
2024-02-26T17:57:02.756Z,1.80
2024-02-26T17:59:30.804Z,2.00
2024-02-26T18:01:58.661Z,1.30
2024-02-26T18:04:27.296Z,2.30
2024-02-26T18:06:55.245Z,2.13
2024-02-26T18:09:23.432Z,2.63
2024-02-26T18:11:54.638Z,2.30
2024-02-26T18:14:22.669Z,2.65
2024-02-26T18:16:50.824Z,2.53
2024-02-26T18:19:18.779Z,2.63
2024-02-26T18:21:46.566Z,2.28
2024-02-26T18:24:16.164Z,2.83
2024-02-26T18:26:45.045Z,2.83
2024-02-26T18:29:13.341Z,3.23
2024-02-26T18:31:41.808Z,2.80
2024-02-26T18:34:09.990Z,2.22
2024-02-26T18:36:37.777Z,1.88
2024-02-26T18:39:05.704Z,1.40
2024-02-26T18:41:34.435Z,2.40
2024-02-26T18:44:02.418Z,2.42
2024-02-26T18:46:30.249Z,2.50
2024-02-26T18:48:58.114Z,1.90
2024-02-26T18:51:26.328Z,2.00
2024-02-26T18:53:54.351Z,1.73
2024-02-26T18:56:24.410Z,1.83
2024-02-26T18:58:52.383Z,2.03
2024-02-26T19:01:21.380Z,1.98
2024-02-26T19:03:49.133Z,1.67
2024-02-26T19:06:16.908Z,1.60
2024-02-26T19:08:44.933Z,2.03
2024-02-26T19:11:12.777Z,1.85
2024-02-26T19:13:41.104Z,1.70
2024-02-26T19:16:08.694Z,1.60
2024-02-26T19:18:37.834Z,1.80
2024-02-26T19:21:06.029Z,1.65
2024-02-26T19:23:35.197Z,2.20
2024-02-26T19:26:03.053Z,1.70
2024-02-26T19:28:31.670Z,1.95
2024-02-26T19:30:59.452Z,1.70
2024-02-26T19:33:28.568Z,1.60
2024-02-26T19:35:56.774Z,1.83
2024-02-26T19:38:24.730Z,1.75
2024-02-26T19:40:52.237Z,2.10
2024-02-26T19:43:19.877Z,1.73
2024-02-26T19:45:47.693Z,1.90
2024-02-26T19:48:16.110Z,2.00
2024-02-26T19:50:45.987Z,1.98
2024-02-26T19:53:13.609Z,2.10
2024-02-26T19:55:41.299Z,1.60
2024-02-26T19:58:09.162Z,1.40
2024-02-26T20:00:37.148Z,1.70
2024-02-26T20:03:07.175Z,1.88
2024-02-26T20:05:35.092Z,2.90
2024-02-26T20:08:02.755Z,3.17
2024-02-26T20:10:30.416Z,2.45
2024-02-26T20:12:59.633Z,2.00
2024-02-26T20:15:27.385Z,2.05
2024-02-26T20:17:55.212Z,2.08
2024-02-26T20:20:27.703Z,2.00
2024-02-26T20:22:55.461Z,1.92
2024-02-26T20:25:23.197Z,2.10
2024-02-26T20:27:50.894Z,1.50
2024-02-26T20:30:18.839Z,1.73
2024-02-26T20:32:46.865Z,1.90
2024-02-26T20:35:15.007Z,1.90
2024-02-26T20:37:43.508Z,2.05
2024-02-26T20:40:12.388Z,2.00
2024-02-26T20:42:40.806Z,2.25
2024-02-26T20:45:09.255Z,2.57
2024-02-26T20:47:37.025Z,2.53
2024-02-26T20:50:06.700Z,2.50
2024-02-26T20:52:35.111Z,2.28
2024-02-26T20:55:02.703Z,2.65
2024-02-26T20:57:30.392Z,2.53
2024-02-26T20:59:59.868Z,2.20
2024-02-26T21:02:33.831Z,2.75
2024-02-26T21:05:04.313Z,2.83
2024-02-26T21:07:32.473Z,3.13
2024-02-26T21:10:00.208Z,2.60
2024-02-26T21:12:28.335Z,3.03
2024-02-26T21:14:56.075Z,2.70
2024-02-26T21:17:23.784Z,2.92
2024-02-26T21:19:53.045Z,2.60
2024-02-26T21:22:21.066Z,2.80
2024-02-26T21:24:48.936Z,2.83
2024-02-26T21:27:17.634Z,3.17
2024-02-26T21:29:45.639Z,3.63
2024-02-26T21:32:13.493Z,4.25
2024-02-26T21:34:42.288Z,3.47
2024-02-26T21:37:10.494Z,3.13
2024-02-26T21:39:38.868Z,4.45
2024-02-26T21:42:07.360Z,3.30
2024-02-26T21:44:34.895Z,3.35
2024-02-26T21:47:03.979Z,3.33
2024-02-26T21:49:31.857Z,2.47
2024-02-26T21:51:59.992Z,2.53
2024-02-26T21:54:28.370Z,2.15
2024-02-26T21:56:56.118Z,2.30
2024-02-26T21:59:24.152Z,2.10
2024-02-26T22:01:52.123Z,2.15
2024-02-26T22:04:19.970Z,2.17
2024-02-26T22:06:49.763Z,2.30
2024-02-26T22:09:18.042Z,2.75
2024-02-26T22:11:45.649Z,3.00
2024-02-26T22:14:13.180Z,2.88
2024-02-26T22:16:40.738Z,2.90
2024-02-26T22:19:08.453Z,2.20
2024-02-26T22:21:36.205Z,2.03
2024-02-26T22:24:04.222Z,2.47
2024-02-26T22:26:32.110Z,2.10
2024-02-26T22:28:59.893Z,2.22
2024-02-26T22:31:29.175Z,2.25
2024-02-26T22:33:57.653Z,1.90
2024-02-26T22:36:25.510Z,1.83
2024-02-26T22:38:53.374Z,2.03
2024-02-26T22:41:21.608Z,2.00
2024-02-26T22:43:49.314Z,2.08
2024-02-26T22:46:16.781Z,2.28
2024-02-26T22:48:44.690Z,1.90
2024-02-26T22:51:14.210Z,2.10
2024-02-26T22:53:41.922Z,2.33
2024-02-26T22:56:09.505Z,1.83
2024-02-26T22:58:37.041Z,2.55
2024-02-26T23:01:04.921Z,2.40
2024-02-26T23:03:32.571Z,2.35
2024-02-26T23:06:00.158Z,2.10
2024-02-26T23:08:27.774Z,2.08
2024-02-26T23:10:55.346Z,1.83
2024-02-26T23:13:22.881Z,1.90
2024-02-26T23:15:54.195Z,1.80
2024-02-26T23:18:22.906Z,1.70
2024-02-26T23:20:50.424Z,1.77
2024-02-26T23:23:17.856Z,1.92
2024-02-26T23:25:45.452Z,1.70
2024-02-26T23:28:13.485Z,1.77
2024-02-26T23:30:41.199Z,2.13
2024-02-26T23:33:09.163Z,1.92
2024-02-26T23:35:37.245Z,1.85
2024-02-26T23:38:04.889Z,1.90
2024-02-26T23:40:35.341Z,3.78
2024-02-26T23:43:03.156Z,4.13
2024-02-26T23:45:30.814Z,3.15
2024-02-26T23:47:58.736Z,2.35
2024-02-26T23:50:28.935Z,2.40
2024-02-26T23:52:56.609Z,2.40
2024-02-26T23:55:24.089Z,2.70
2024-02-26T23:57:51.487Z,2.28
